Time;durP1;ratioP1;P1;durP2;ratioP2;P2;SDS_P1;SDS_P2;PMS_P1;PMS_P2;Temp;Humidity;BMP_temperature;BMP_pressure;BME280_temperature;BME280_humidity;BME280_pressure;Samples;Min_cycle;Max_cycle;Signal;HPM_P1;HPM_P2
2022/10/27 00:01:19;;;;;;;17.25;7.53;;;;;;;12.48;85.89;101730.69;1850722;77;21062;-49
2022/10/27 00:03:52;;;;;;;21.25;8.38;;;;;;;12.43;85.81;101732.61;1851841;77;21079;-47
2022/10/27 00:06:20;;;;;;;16.15;8.70;;;;;;;12.38;85.83;101730.58;1852100;77;21551;-47
2022/10/27 00:08:53;;;;;;;19.70;8.58;;;;;;;12.32;85.74;101725.00;1851832;77;21145;-48
2022/10/27 00:11:21;;;;;;;18.10;8.90;;;;;;;12.27;85.70;101725.16;1855665;76;21504;-49
2022/10/27 00:13:50;;;;;;;16.12;8.18;;;;;;;12.24;85.69;101727.03;1858473;76;21090;-49
2022/10/27 00:16:19;;;;;;;18.32;8.63;;;;;;;12.19;85.66;101732.89;1858493;77;21121;-47
2022/10/27 00:18:47;;;;;;;19.30;9.88;;;;;;;12.15;85.68;101737.41;1852542;77;21066;-47
2022/10/27 00:21:19;;;;;;;17.52;8.43;;;;;;;12.13;85.81;101736.59;1851906;77;21047;-51
2022/10/27 00:23:52;;;;;;;20.25;9.45;;;;;;;12.14;86.07;101738.33;1851817;77;21058;-48
2022/10/27 00:26:22;;;;;;;16.10;8.97;;;;;;;12.18;86.26;101743.92;1852155;77;21555;-47
2022/10/27 00:28:50;;;;;;;16.75;8.08;;;;;;;12.21;86.15;101749.55;1852125;77;21579;-48
2022/10/27 00:31:21;;;;;;;15.25;7.42;;;;;;;12.22;86.19;101746.02;1851933;77;21042;-48
2022/10/27 00:33:50;;;;;;;19.67;8.18;;;;;;;12.22;86.06;101748.66;1851880;77;21450;-50
2022/10/27 00:36:22;;;;;;;15.35;7.42;;;;;;;12.21;85.90;101741.63;1851821;77;21517;-47
2022/10/27 00:38:58;;;;;;;19.82;8.30;;;;;;;12.16;85.87;101745.28;1852271;77;21062;-48
2022/10/27 00:41:36;;;;;;;17.00;8.70;;;;;;;12.14;85.80;101752.39;1851986;77;21039;-48
2022/10/27 00:44:34;;;;;;;22.35;11.75;;;;;;;12.11;85.82;101751.61;1851829;77;21110;-51
2022/10/27 00:47:11;;;;;;;23.62;11.57;;;;;;;12.05;85.88;101750.48;1851885;77;21225;-51
2022/10/27 00:49:45;;;;;;;20.00;9.38;;;;;;;11.92;86.00;101741.58;1852113;77;21129;-51
2022/10/27 00:52:26;;;;;;;22.13;10.55;;;;;;;11.79;86.14;101743.67;1851687;77;21586;-50
2022/10/27 00:54:57;;;;;;;22.27;10.82;;;;;;;11.73;86.14;101739.00;1851947;77;21078;-50
2022/10/27 00:57:27;;;;;;;24.85;12.23;;;;;;;11.68;86.18;101748.84;1853384;77;21441;-49
2022/10/27 00:59:57;;;;;;;23.65;11.95;;;;;;;11.66;86.49;101754.63;1859911;76;21584;-49
2022/10/27 01:02:26;;;;;;;20.97;10.98;;;;;;;11.65;86.38;101758.16;1860167;77;21512;-48
2022/10/27 01:04:58;;;;;;;15.08;7.83;;;;;;;11.62;86.56;101751.63;1860211;77;21164;-50
2022/10/27 01:07:27;;;;;;;17.75;9.10;;;;;;;11.62;86.83;101756.91;1858768;77;21094;-51
2022/10/27 01:09:56;;;;;;;21.50;11.97;;;;;;;11.64;86.63;101748.50;1860329;77;21603;-47
2022/10/27 01:12:25;;;;;;;23.50;12.75;;;;;;;11.66;86.57;101759.91;1860155;77;21567;-47
2022/10/27 01:14:54;;;;;;;23.42;8.40;;;;;;;11.63;86.69;101757.34;1860355;77;21092;-45
2022/10/27 01:17:48;;;;;;;20.60;10.05;;;;;;;11.58;86.72;101753.48;1861780;77;21141;-52
2022/10/27 01:20:36;;;;;;;16.70;7.90;;;;;;;11.54;86.80;101754.02;1864334;77;21081;-49
2022/10/27 01:23:35;;;;;;;21.23;9.40;;;;;;;11.52;86.70;101759.80;1851885;77;21121;-51
2022/10/27 01:26:31;;;;;;;23.20;9.83;;;;;;;11.53;86.60;101765.95;1864387;77;21198;-51
2022/10/27 01:29:20;;;;;;;17.65;9.08;;;;;;;11.55;86.60;101772.05;1863761;77;21132;-48
2022/10/27 01:32:17;;;;;;;19.02;9.30;;;;;;;11.59;86.52;101781.15;1863199;77;21582;-48
2022/10/27 01:34:52;;;;;;;18.00;9.58;;;;;;;11.64;86.39;101785.43;1863757;77;21528;-48
2022/10/27 01:37:29;;;;;;;21.97;11.73;;;;;;;11.66;86.25;101788.92;1862372;77;21050;-50
2022/10/27 01:40:03;;;;;;;18.10;10.35;;;;;;;11.63;86.23;101786.35;1853508;76;21470;-48
2022/10/27 01:42:44;;;;;;;20.65;9.93;;;;;;;11.62;86.29;101793.41;1848645;77;21227;-46
2022/10/27 01:45:16;;;;;;;22.22;12.90;;;;;;;11.63;86.33;101791.62;1849155;77;21076;-49
2022/10/27 01:47:45;;;;;;;22.50;13.00;;;;;;;11.63;86.36;101786.35;1854555;77;21118;-48
2022/10/27 01:50:18;;;;;;;18.85;9.75;;;;;;;11.62;86.41;101789.88;1854628;77;21012;-49
2022/10/27 01:52:49;;;;;;;17.70;8.10;;;;;;;11.58;86.42;101789.98;1858123;76;21067;-51
2022/10/27 01:55:37;;;;;;;14.63;6.80;;;;;;;11.56;86.40;101793.55;1883791;76;21133;-50
2022/10/27 01:58:12;;;;;;;18.35;8.33;;;;;;;11.50;86.46;101791.94;1887105;76;21201;-50
2022/10/27 02:00:46;;;;;;;14.23;6.28;;;;;;;11.47;86.55;101793.36;1879981;76;21111;-49
2022/10/27 02:03:18;;;;;;;14.55;6.55;;;;;;;11.47;86.68;101794.68;1878938;76;21624;-50
2022/10/27 02:05:52;;;;;;;16.30;7.10;;;;;;;11.47;86.68;101789.41;1882134;76;21087;-52
2022/10/27 02:08:27;;;;;;;16.60;7.60;;;;;;;11.47;86.70;101789.41;1877464;76;21496;-50
2022/10/27 02:11:01;;;;;;;15.95;7.60;;;;;;;11.48;86.83;101793.76;1877493;76;21099;-47
2022/10/27 02:13:32;;;;;;;16.87;7.60;;;;;;;11.51;86.87;101788.41;1876601;76;21044;-47
2022/10/27 02:16:10;;;;;;;15.85;7.95;;;;;;;11.52;86.98;101791.91;1877574;76;21028;-48
2022/10/27 02:18:42;;;;;;;14.87;7.62;;;;;;;11.51;87.06;101797.64;1877621;76;21127;-48
2022/10/27 02:21:13;;;;;;;15.98;7.40;;;;;;;11.55;86.97;101800.61;1877889;76;21009;-49
2022/10/27 02:23:43;;;;;;;17.48;7.97;;;;;;;11.58;86.89;101797.90;1879017;76;21061;-49
2022/10/27 02:26:29;;;;;;;14.73;6.62;;;;;;;11.63;86.78;101799.55;1884083;76;21540;-50
2022/10/27 02:29:10;;;;;;;13.03;7.08;;;;;;;11.66;86.71;101800.80;1885098;76;21503;-49
2022/10/27 02:31:42;;;;;;;11.60;6.15;;;;;;;11.65;86.67;101804.32;1881975;76;21095;-47
2022/10/27 02:34:12;;;;;;;14.10;6.42;;;;;;;11.64;86.71;101802.58;1896156;75;21029;-52
2022/10/27 02:36:41;;;;;;;11.53;5.67;;;;;;;11.65;86.68;101803.86;1914838;75;21048;-52
2022/10/27 02:39:10;;;;;;;12.65;5.42;;;;;;;11.65;86.65;101795.09;1884709;76;21056;-52
2022/10/27 02:41:39;;;;;;;12.05;5.85;;;;;;;11.69;86.70;101795.41;1884571;76;21040;-52
2022/10/27 02:44:08;;;;;;;12.00;5.78;;;;;;;11.72;86.68;101788.74;1883612;76;21156;-51
2022/10/27 02:46:36;;;;;;;12.40;6.45;;;;;;;11.76;86.66;101793.02;1877603;76;21496;-51
2022/10/27 02:49:05;;;;;;;9.90;5.40;;;;;;;11.79;86.58;101789.84;1877528;76;21201;-47
2022/10/27 02:51:34;;;;;;;13.08;6.62;;;;;;;11.80;86.52;101786.75;1877582;76;21045;-48
2022/10/27 02:54:03;;;;;;;10.23;4.05;;;;;;;11.80;86.52;101793.34;1878682;76;21133;-48
2022/10/27 02:56:32;;;;;;;12.98;6.62;;;;;;;11.77;86.52;101796.95;1884633;74;21136;-55
2022/10/27 02:59:01;;;;;;;13.00;5.67;;;;;;;11.77;86.55;101794.77;1912943;75;21045;-49
2022/10/27 03:01:29;;;;;;;15.30;6.75;;;;;;;11.78;86.40;101801.77;1910435;74;21073;-48
2022/10/27 03:03:58;;;;;;;21.25;7.97;;;;;;;11.77;86.25;101803.55;1873169;75;21046;-47
2022/10/27 03:06:27;;;;;;;18.37;7.78;;;;;;;11.73;86.28;101808.92;1870592;76;21124;-48
2022/10/27 03:08:56;;;;;;;16.95;7.08;;;;;;;11.68;86.23;101809.53;1874027;75;21182;-48
2022/10/27 03:11:24;;;;;;;15.53;8.20;;;;;;;11.59;86.43;101807.53;1907298;75;21041;-50
2022/10/27 03:13:53;;;;;;;20.40;9.53;;;;;;;11.57;86.63;101809.34;1903529;75;21111;-49
2022/10/27 03:16:22;;;;;;;20.40;9.55;;;;;;;11.55;86.80;101815.12;1856206;76;21085;-48
2022/10/27 03:18:51;;;;;;;19.62;9.95;;;;;;;11.55;86.87;101820.39;1855932;76;21482;-48
2022/10/27 03:21:19;;;;;;;23.20;10.98;;;;;;;11.54;86.94;101819.96;1867999;76;21021;-48
2022/10/27 03:23:48;;;;;;;20.75;8.13;;;;;;;11.55;86.99;101824.34;1870715;76;21130;-50
2022/10/27 03:26:17;;;;;;;18.73;8.48;;;;;;;11.55;87.16;101829.63;1882856;75;21018;-51
2022/10/27 03:28:46;;;;;;;19.85;8.53;;;;;;;11.56;87.34;101826.52;1905340;75;21202;-47
2022/10/27 03:31:14;;;;;;;19.17;7.78;;;;;;;11.58;87.31;101832.20;1907600;75;21030;-49
2022/10/27 03:33:43;;;;;;;18.55;8.20;;;;;;;11.62;87.33;101829.02;1907219;75;21057;-49
2022/10/27 03:36:12;;;;;;;12.28;6.75;;;;;;;11.67;87.30;101832.84;1903382;75;21119;-51
2022/10/27 03:38:41;;;;;;;22.62;9.50;;;;;;;11.70;87.26;101822.22;1867604;76;21582;-53
2022/10/27 03:41:10;;;;;;;21.70;8.95;;;;;;;11.71;87.42;101835.38;1869707;76;21021;-51
2022/10/27 03:43:39;;;;;;;17.62;9.18;;;;;;;11.72;87.63;101828.32;1873220;76;21025;-48
2022/10/27 03:46:10;;;;;;;17.98;9.10;;;;;;;11.74;87.59;101831.32;1873260;76;21073;-49
2022/10/27 03:48:39;;;;;;;20.62;9.05;;;;;;;11.76;87.75;101829.97;1873329;76;21108;-49
2022/10/27 03:51:08;;;;;;;17.80;7.45;;;;;;;11.75;87.75;101825.61;1873180;76;21021;-54
2022/10/27 03:53:37;;;;;;;18.23;8.03;;;;;;;11.78;87.72;101830.78;1873384;76;21089;-50
2022/10/27 03:56:06;;;;;;;19.00;9.68;;;;;;;11.82;87.62;101836.39;1874276;76;21013;-47
2022/10/27 03:58:35;;;;;;;16.60;7.97;;;;;;;11.86;87.56;101836.74;1878339;76;21036;-52
2022/10/27 04:01:05;;;;;;;17.90;7.05;;;;;;;11.88;87.55;101833.61;1879994;75;21566;-53
2022/10/27 04:03:34;;;;;;;16.55;7.85;;;;;;;11.90;87.57;101835.78;1862691;76;21072;-52
2022/10/27 04:06:02;;;;;;;23.15;7.87;;;;;;;11.93;87.61;101838.34;1845912;78;21527;-50
2022/10/27 04:08:31;;;;;;;13.50;7.33;;;;;;;11.96;87.62;101839.56;1848347;76;21138;-51
2022/10/27 04:11:00;;;;;;;14.55;7.28;;;;;;;12.01;87.69;101841.20;1833001;78;21142;-50
2022/10/27 04:13:29;;;;;;;16.62;6.15;;;;;;;12.05;87.80;101838.91;1845936;78;21581;-50
2022/10/27 04:16:01;;;;;;;15.15;6.78;;;;;;;12.10;87.76;101840.98;1845915;78;21099;-52
2022/10/27 04:18:30;;;;;;;15.58;5.60;;;;;;;12.14;87.85;101834.23;1845861;78;21565;-48
2022/10/27 04:21:06;;;;;;;13.93;6.70;;;;;;;12.20;87.81;101835.83;1845959;78;21080;-50
2022/10/27 04:23:35;;;;;;;14.47;5.67;;;;;;;12.25;87.91;101841.85;1848122;77;21594;-53
2022/10/27 04:26:04;;;;;;;11.50;5.50;;;;;;;12.32;87.91;101830.21;1852437;77;21026;-51
2022/10/27 04:28:33;;;;;;;17.40;6.62;;;;;;;12.39;87.74;101835.30;1849840;77;21150;-50
2022/10/27 04:31:01;;;;;;;11.22;5.50;;;;;;;12.43;87.56;101845.75;1847387;77;21150;-49
2022/10/27 04:33:30;;;;;;;17.27;6.80;;;;;;;12.46;87.33;101851.39;1860943;76;21096;-50
2022/10/27 04:36:00;;;;;;;13.00;6.33;;;;;;;12.45;87.12;101853.60;1845953;78;21147;-53
2022/10/27 04:38:28;;;;;;;17.10;6.67;;;;;;;12.42;87.02;101846.65;1846228;77;21478;-60
2022/10/27 04:41:01;;;;;;;13.08;6.65;;;;;;;12.41;86.97;101846.22;1846693;77;21125;-61
2022/10/27 04:43:30;;;;;;;19.82;7.95;;;;;;;12.38;86.97;101854.72;1851547;77;21047;-59
2022/10/27 04:45:58;;;;;;;16.00;7.22;;;;;;;12.33;87.08;101862.76;1857672;77;21028;-58
2022/10/27 04:48:27;;;;;;;15.30;7.28;;;;;;;12.36;87.20;101871.46;1857769;77;21121;-58
2022/10/27 04:50:56;;;;;;;18.00;6.67;;;;;;;12.44;87.19;101874.34;1855359;77;21117;-58
2022/10/27 04:53:25;;;;;;;14.98;6.25;;;;;;;12.52;87.12;101873.65;1852651;77;21029;-57
2022/10/27 04:55:54;;;;;;;13.08;6.00;;;;;;;12.60;87.02;101876.95;1852914;77;21046;-59
2022/10/27 04:58:23;;;;;;;15.20;5.92;;;;;;;12.67;86.99;101877.19;1869014;76;21489;-55
2022/10/27 05:00:51;;;;;;;15.00;5.67;;;;;;;12.75;86.95;101880.91;1879140;76;21015;-55
2022/10/27 05:03:20;;;;;;;14.45;5.78;;;;;;;12.86;86.87;101880.59;1882504;76;21160;-57
2022/10/27 05:05:49;;;;;;;11.33;5.47;;;;;;;12.96;86.69;101879.39;1862727;76;21169;-59
2022/10/27 05:08:17;;;;;;;10.32;5.10;;;;;;;13.10;86.49;101886.44;1860971;77;21068;-58
2022/10/27 05:13:35;;;;;;;11.88;5.30;;;;;;;13.33;85.79;101878.25;1917625;75;21052;-57
2022/10/27 05:16:05;;;;;;;13.30;5.50;;;;;;;13.43;85.60;101882.34;1905029;75;21118;-59
2022/10/27 05:18:34;;;;;;;11.12;5.05;;;;;;;13.55;85.46;101886.82;1885032;75;21047;-60
2022/10/27 05:21:03;;;;;;;16.17;5.62;;;;;;;13.71;85.26;101892.86;1885011;76;21039;-58
2022/10/27 05:23:31;;;;;;;10.55;5.30;;;;;;;13.88;85.08;101899.38;1884996;76;21110;-58
2022/10/27 05:26:00;;;;;;;9.38;5.03;;;;;;;14.06;84.90;101904.03;1887023;75;21057;-54
2022/10/27 05:28:28;;;;;;;11.18;5.53;;;;;;;14.16;84.54;101906.34;1885018;76;21044;-55
2022/10/27 05:30:58;;;;;;;9.18;4.47;;;;;;;14.20;84.22;101908.85;1884958;76;21039;-50
2022/10/27 05:33:28;;;;;;;11.57;5.17;;;;;;;14.25;84.14;101910.85;1885121;76;21458;-52
2022/10/27 05:35:57;;;;;;;6.85;4.60;;;;;;;14.28;83.79;101906.78;1895469;75;21471;-59
2022/10/27 05:38:26;;;;;;;7.72;4.15;;;;;;;14.26;83.73;101906.44;1917570;74;21507;-61
2022/10/27 05:40:58;;;;;;;7.80;4.45;;;;;;;14.31;83.60;101914.20;1917611;75;21096;-62
2022/10/27 05:43:26;;;;;;;7.72;4.55;;;;;;;14.41;83.25;101917.80;1915741;75;21557;-64
2022/10/27 05:45:55;;;;;;;10.25;4.83;;;;;;;14.53;83.10;101920.45;1917589;75;21150;-59
2022/10/27 05:48:24;;;;;;;11.18;4.55;;;;;;;14.62;82.60;101918.81;1917628;75;21065;-57
2022/10/27 05:50:53;;;;;;;12.33;5.22;;;;;;;14.68;82.28;101919.05;1897044;75;21016;-60
2022/10/27 05:53:23;;;;;;;9.95;4.30;;;;;;;14.85;81.94;101917.97;1917594;74;21524;-61
2022/10/27 05:55:55;;;;;;;9.15;4.28;;;;;;;15.61;81.63;101923.80;1917596;75;21040;-62
2022/10/27 05:58:23;;;;;;;8.40;4.10;;;;;;;15.83;81.24;101917.63;1898681;75;21562;-61
2022/10/27 06:00:52;;;;;;;7.65;3.92;;;;;;;15.86;80.85;101922.82;1885002;76;21111;-59
2022/10/27 06:03:23;;;;;;;7.05;3.70;;;;;;;15.81;80.50;101928.31;1887071;75;21055;-61
2022/10/27 06:05:52;;;;;;;7.97;4.22;;;;;;;15.76;80.36;101927.63;1884753;76;21052;-61
2022/10/27 06:08:22;;;;;;;7.83;3.83;;;;;;;15.74;79.75;101928.64;1884981;76;21474;-63
2022/10/27 06:10:51;;;;;;;9.80;3.80;;;;;;;15.68;79.43;101928.40;1884919;76;21750;-61
2022/10/27 06:13:20;;;;;;;9.35;4.58;;;;;;;15.70;79.21;101929.20;1883481;76;21144;-61
2022/10/27 06:15:49;;;;;;;7.97;3.47;;;;;;;15.72;78.95;101924.68;1886864;76;21074;-61
2022/10/27 06:18:18;;;;;;;8.25;4.25;;;;;;;15.62;78.19;101929.95;1886673;76;21026;-62
2022/10/27 06:20:47;;;;;;;8.83;3.58;;;;;;;15.54;78.20;101932.94;1886970;76;21011;-61
2022/10/27 06:23:16;;;;;;;8.65;4.05;;;;;;;15.52;78.18;101933.94;1884440;76;21203;-63
2022/10/27 06:25:45;;;;;;;14.73;4.47;;;;;;;15.50;78.33;101934.47;1886828;76;21038;-59
2022/10/27 06:28:14;;;;;;;8.90;3.83;;;;;;;15.53;78.40;101935.20;1887024;76;21050;-59
2022/10/27 06:30:44;;;;;;;8.28;3.70;;;;;;;15.60;78.29;101935.80;1886605;76;21113;-60
2022/10/27 06:33:13;;;;;;;6.30;3.80;;;;;;;15.68;78.20;101937.69;1883947;76;21057;-60
2022/10/27 06:35:41;;;;;;;5.67;3.33;;;;;;;15.80;78.12;101939.84;1886869;75;21104;-58
2022/10/27 06:38:15;;;;;;;6.87;3.52;;;;;;;15.96;78.03;101936.56;1886831;76;21034;-59
2022/10/27 06:40:41;;;;;;;10.65;3.52;;;;;;;16.10;77.91;101939.94;1886316;75;21081;-60
2022/10/27 06:43:11;;;;;;;7.00;3.92;;;;;;;16.19;77.43;101939.10;1886858;76;21094;-59
2022/10/27 06:45:40;;;;;;;6.05;3.58;;;;;;;16.33;77.01;101942.94;1883291;76;21559;-59
2022/10/27 06:48:10;;;;;;;9.05;3.50;;;;;;;16.40;76.68;101943.06;1886964;76;21472;-59
2022/10/27 06:50:39;;;;;;;5.15;3.02;;;;;;;16.47;76.32;101949.84;1886842;76;21010;-59
2022/10/27 06:53:08;;;;;;;7.20;3.90;;;;;;;16.52;75.89;101943.83;1886851;76;21038;-60
2022/10/27 06:55:36;;;;;;;5.60;3.35;;;;;;;16.54;75.50;101951.30;1884306;75;21042;-59
2022/10/27 06:58:05;;;;;;;10.13;3.60;;;;;;;16.59;75.05;101947.94;1872492;76;21080;-60
2022/10/27 07:00:55;;;;;;;6.12;3.58;;;;;;;16.66;74.21;101946.36;1853411;77;21589;-58
2022/10/27 07:03:25;;;;;;;9.38;3.55;;;;;;;16.79;73.19;101951.50;1849413;77;21035;-57
2022/10/27 07:06:13;;;;;;;7.03;3.55;;;;;;;16.97;73.10;101956.00;1901699;75;21139;-57
2022/10/27 07:08:42;;;;;;;6.85;3.20;;;;;;;17.25;72.97;101947.19;1901722;75;21527;-57
2022/10/27 07:11:10;;;;;;;7.12;3.40;;;;;;;17.34;71.95;101950.74;1901680;75;21046;-59
2022/10/27 07:13:39;;;;;;;5.17;3.35;;;;;;;17.46;71.82;101950.60;1898567;75;21167;-57
2022/10/27 07:16:09;;;;;;;6.83;2.92;;;;;;;17.60;71.60;101946.80;1869440;77;21093;-58
2022/10/27 07:18:38;;;;;;;6.17;2.60;;;;;;;17.71;71.17;101952.45;1869702;75;21203;-58
2022/10/27 07:21:07;;;;;;;4.85;3.35;;;;;;;17.72;70.89;101951.53;1869435;77;21058;-58
2022/10/27 07:23:35;;;;;;;4.72;2.50;;;;;;;17.64;68.75;101943.04;1869403;77;21112;-59
2022/10/27 07:26:05;;;;;;;4.37;2.17;;;;;;;17.54;69.22;101949.78;1898586;75;21066;-58
2022/10/27 07:28:33;;;;;;;6.42;3.08;;;;;;;17.42;68.81;101943.70;1897089;75;21223;-57
2022/10/27 07:31:02;;;;;;;5.08;2.50;;;;;;;17.30;67.72;101942.48;1901762;75;21062;-61
2022/10/27 07:33:31;;;;;;;4.83;2.35;;;;;;;17.25;68.30;101958.70;1901795;75;21034;-62
2022/10/27 07:36:00;;;;;;;6.42;2.60;;;;;;;17.36;68.34;101959.52;1879373;75;21065;-60
2022/10/27 07:38:28;;;;;;;5.87;2.60;;;;;;;17.52;68.39;101951.18;1869397;77;21038;-62
2022/10/27 07:40:57;;;;;;;5.92;2.98;;;;;;;17.66;68.22;101962.47;1869506;77;21128;-61
2022/10/27 07:43:26;;;;;;;3.80;2.40;;;;;;;17.70;67.65;101956.05;1871107;75;21190;-49
2022/10/27 07:45:55;;;;;;;9.48;2.85;;;;;;;17.63;67.21;101967.08;1893686;75;21093;-49
2022/10/27 07:48:24;;;;;;;6.87;2.83;;;;;;;17.59;66.15;101950.39;1901177;74;21039;-51
2022/10/27 07:50:54;;;;;;;7.22;2.87;;;;;;;17.57;66.80;101964.25;1906409;74;21094;-51
2022/10/27 07:53:22;;;;;;;4.17;2.67;;;;;;;17.68;66.66;101952.59;1902493;74;21093;-48
2022/10/27 07:55:51;;;;;;;4.92;2.83;;;;;;;17.82;66.12;101963.05;1901165;75;21038;-49
2022/10/27 07:58:20;;;;;;;6.08;2.67;;;;;;;17.93;65.16;101964.74;1903075;75;21038;-54
2022/10/27 08:00:48;;;;;;;5.10;2.27;;;;;;;18.01;64.62;101967.02;1864163;77;21046;-53
2022/10/27 08:03:20;;;;;;;5.20;2.65;;;;;;;18.01;65.01;101969.20;1854180;77;21472;-54
2022/10/27 08:05:49;;;;;;;5.60;2.10;;;;;;;18.02;65.32;101972.72;1849362;76;21620;-53
2022/10/27 08:08:18;;;;;;;4.17;2.15;;;;;;;17.92;64.02;101974.98;1846361;78;21529;-53
2022/10/27 08:10:49;;;;;;;10.80;2.83;;;;;;;18.07;64.01;101978.20;1851420;77;21474;-52
2022/10/27 08:13:18;;;;;;;6.10;2.25;;;;;;;18.17;64.49;101977.73;1846501;78;21079;-53
2022/10/27 08:15:48;;;;;;;4.00;2.27;;;;;;;18.32;64.79;101982.29;1846251;78;21150;-53
2022/10/27 08:18:17;;;;;;;7.50;2.52;;;;;;;18.48;64.78;101980.55;1851393;77;21051;-53
2022/10/27 08:20:47;;;;;;;9.78;2.67;;;;;;;18.76;64.78;101980.41;1846385;78;21028;-53
2022/10/27 08:23:19;;;;;;;6.67;3.02;;;;;;;19.00;64.51;101982.73;1851850;77;21062;-58
2022/10/27 08:25:48;;;;;;;5.47;2.20;;;;;;;19.29;62.57;101973.96;1851841;77;21043;-58
2022/10/27 08:28:17;;;;;;;6.45;2.60;;;;;;;19.72;62.38;101972.45;1851258;77;21071;-57
2022/10/27 08:30:46;;;;;;;3.90;2.05;;;;;;;20.19;61.12;101971.47;1849819;77;21478;-58
2022/10/27 08:33:15;;;;;;;7.00;3.10;;;;;;;20.39;60.31;101979.14;1849107;77;21047;-58
2022/10/27 08:35:43;;;;;;;3.58;1.80;;;;;;;20.24;60.37;101989.45;1849040;77;21039;-58
2022/10/27 08:38:15;;;;;;;4.40;2.33;;;;;;;19.96;61.08;101986.23;1851389;77;21154;-58
2022/10/27 08:41:11;;;;;;;7.12;2.85;;;;;;;19.73;61.83;101982.22;1853001;77;21045;-61
2022/10/27 08:43:49;;;;;;;7.25;3.08;;;;;;;19.61;62.17;101982.42;1853307;77;21123;-60
2022/10/27 08:46:29;;;;;;;4.70;2.67;;;;;;;19.74;62.01;101988.81;1853173;77;21032;-59
2022/10/27 08:49:01;;;;;;;6.08;3.52;;;;;;;19.79;61.45;101977.38;1850923;77;21221;-60
2022/10/27 08:51:32;;;;;;;5.42;2.70;;;;;;;19.98;60.91;101981.16;1852840;77;21112;-61
2022/10/27 08:54:03;;;;;;;6.62;2.67;;;;;;;20.14;60.19;101980.24;1832457;77;21080;-61
2022/10/27 08:56:40;;;;;;;7.97;3.35;;;;;;;20.55;58.47;101975.06;1822677;79;21044;-60
2022/10/27 08:59:14;;;;;;;4.65;2.90;;;;;;;20.53;59.08;101976.98;1849740;77;21056;-60
2022/10/27 09:01:46;;;;;;;11.12;3.75;;;;;;;20.18;59.96;101981.80;1847198;78;21153;-60
2022/10/27 09:04:27;;;;;;;8.43;5.35;;;;;;;19.77;60.93;101980.62;1799689;78;21083;-59
2022/10/27 09:07:01;;;;;;;8.55;4.55;;;;;;;19.42;61.72;101982.59;1824735;79;21091;-61
2022/10/27 09:09:57;;;;;;;8.85;4.70;;;;;;;19.11;62.41;101987.00;1828526;78;21091;-60
2022/10/27 09:12:53;;;;;;;8.08;4.33;;;;;;;18.89;62.99;101989.98;1864561;76;21054;-61
2022/10/27 09:15:27;;;;;;;11.83;5.00;;;;;;;18.74;63.41;101988.97;1886503;76;21062;-59
2022/10/27 09:18:10;;;;;;;10.23;4.70;;;;;;;18.68;63.69;101986.16;1886223;75;21027;-59
2022/10/27 09:20:50;;;;;;;7.47;4.37;;;;;;;18.78;63.55;101982.52;1886790;76;21094;-59
2022/10/27 09:23:21;;;;;;;10.32;4.30;;;;;;;19.05;63.11;101989.98;1883127;76;21122;-63
2022/10/27 09:25:52;;;;;;;7.47;4.58;;;;;;;19.41;62.34;101979.55;1881877;76;21485;-59
2022/10/27 09:28:33;;;;;;;8.50;4.53;;;;;;;19.42;61.89;101986.15;1884411;76;21062;-59
2022/10/27 09:31:03;;;;;;;9.30;4.58;;;;;;;19.39;61.92;101983.64;1861405;75;21205;-57
2022/10/27 09:33:35;;;;;;;6.75;4.75;;;;;;;19.34;61.97;101982.17;1855061;77;21151;-58
2022/10/27 09:36:14;;;;;;;9.03;4.17;;;;;;;19.27;62.38;101980.31;1855053;77;21064;-63
2022/10/27 09:38:43;;;;;;;8.30;4.55;;;;;;;19.13;62.27;101990.44;1855032;77;21028;-58
2022/10/27 09:41:12;;;;;;;9.40;4.87;;;;;;;18.99;62.05;101986.33;1855005;77;21059;-59
2022/10/27 09:43:41;;;;;;;9.45;4.47;;;;;;;18.84;62.06;101984.88;1863339;76;21144;-59
2022/10/27 09:46:24;;;;;;;8.95;4.85;;;;;;;18.78;62.34;101990.53;1880404;76;21039;-57
2022/10/27 09:48:56;;;;;;;8.88;4.87;;;;;;;18.76;62.31;101991.53;1855254;76;21046;-57
2022/10/27 09:51:36;;;;;;;7.85;5.15;;;;;;;18.78;62.46;101987.86;1872592;76;21105;-60
2022/10/27 09:54:05;;;;;;;10.03;5.10;;;;;;;18.89;62.10;101988.17;1854831;77;21149;-58
2022/10/27 09:56:35;;;;;;;7.67;4.50;;;;;;;18.91;61.92;101990.76;1876061;76;21023;-58
2022/10/27 09:59:07;;;;;;;10.00;4.60;;;;;;;18.80;61.99;101980.62;1859558;76;21042;-58
2022/10/27 10:01:47;;;;;;;9.75;5.10;;;;;;;18.74;62.20;101985.42;1855013;77;21070;-57
2022/10/27 10:04:21;;;;;;;8.00;4.70;;;;;;;18.71;62.03;101985.13;1854975;77;21120;-61
2022/10/27 10:06:55;;;;;;;8.83;4.83;;;;;;;18.67;62.20;101987.58;1856173;77;21117;-60
2022/10/27 10:09:30;;;;;;;7.22;4.80;;;;;;;18.67;62.33;101986.24;1869104;77;21144;-61
2022/10/27 10:12:26;;;;;;;8.15;4.78;;;;;;;18.67;61.95;101987.58;1869466;77;21058;-60
2022/10/27 10:15:15;;;;;;;8.03;4.35;;;;;;;18.68;61.82;101979.95;1886581;75;21096;-61
2022/10/27 10:17:53;;;;;;;8.00;4.08;;;;;;;18.74;61.54;101980.97;1869426;77;21578;-61
2022/10/27 10:20:34;;;;;;;7.75;4.37;;;;;;;18.77;61.40;101979.45;1882438;75;21112;-62
2022/10/27 10:23:09;;;;;;;7.92;4.70;;;;;;;18.77;61.32;101978.11;1889567;76;21156;-60
2022/10/27 10:25:46;;;;;;;6.20;3.30;;;;;;;18.55;61.09;101982.87;1888323;76;21046;-60
2022/10/27 10:28:16;;;;;;;9.10;3.80;;;;;;;18.41;61.56;101972.48;1889658;76;21454;-60
2022/10/27 10:30:47;;;;;;;5.92;3.62;;;;;;;18.50;61.60;101973.33;1881957;76;21038;-60
2022/10/27 10:33:17;;;;;;;7.45;3.90;;;;;;;18.66;60.88;101966.68;1889642;76;21054;-58
2022/10/27 10:35:50;;;;;;;8.33;3.98;;;;;;;18.85;60.86;101971.94;1889643;76;21058;-53
2022/10/27 10:38:28;;;;;;;7.95;4.40;;;;;;;19.17;60.53;101968.44;1889739;76;21105;-59
2022/10/27 10:41:07;;;;;;;6.12;4.03;;;;;;;19.37;60.04;101972.67;1889764;76;21035;-60
2022/10/27 10:43:36;;;;;;;6.12;3.72;;;;;;;19.57;59.86;101969.72;1889578;76;21140;-60
2022/10/27 10:46:07;;;;;;;9.60;4.15;;;;;;;19.59;59.47;101974.49;1889672;76;21034;-60
2022/10/27 10:48:45;;;;;;;7.90;4.17;;;;;;;19.62;59.71;101970.32;1889750;76;21043;-57
2022/10/27 10:51:11;;;;;;;6.10;3.87;;;;;;;19.59;59.85;101969.16;1887038;76;21489;-58
2022/10/27 10:53:43;;;;;;;5.83;4.22;;;;;;;19.45;59.97;101970.41;1885769;75;21113;-58
2022/10/27 10:56:24;;;;;;;9.00;4.28;;;;;;;19.26;59.97;101971.94;1817597;77;21525;-58
2022/10/27 10:58:55;;;;;;;6.28;3.50;;;;;;;19.14;59.92;101973.46;1828634;78;21468;-58
2022/10/27 11:01:25;;;;;;;6.65;3.37;;;;;;;19.09;59.94;101967.55;1816579;78;21061;-61
2022/10/27 11:03:56;;;;;;;8.20;3.95;;;;;;;19.09;59.88;101978.22;1832546;77;21031;-62
2022/10/27 11:06:24;;;;;;;5.60;3.45;;;;;;;19.01;59.69;101975.09;1847215;78;21040;-59
2022/10/27 11:09:02;;;;;;;5.62;3.30;;;;;;;19.02;59.63;101974.16;1847790;78;21559;-51
2022/10/27 11:11:33;;;;;;;6.65;3.47;;;;;;;18.90;59.63;101976.56;1854092;77;21054;-49
2022/10/27 11:14:05;;;;;;;6.10;3.05;;;;;;;18.76;59.70;101965.73;1859680;77;21500;-53
2022/10/27 11:16:36;;;;;;;7.55;2.80;;;;;;;18.79;59.53;101970.89;1859866;77;21140;-53
2022/10/27 11:19:08;;;;;;;7.37;3.30;;;;;;;18.75;59.49;101966.67;1859399;77;21140;-61
2022/10/27 11:21:40;;;;;;;6.90;2.95;;;;;;;18.73;59.43;101973.05;1856570;77;21077;-58
2022/10/27 11:24:15;;;;;;;4.58;2.77;;;;;;;18.77;59.50;101979.45;1846155;78;21071;-59
2022/10/27 11:27:01;;;;;;;5.05;3.08;;;;;;;18.83;59.31;101983.17;1846070;78;21071;-58
2022/10/27 11:29:39;;;;;;;4.87;2.92;;;;;;;18.83;58.85;101985.84;1845958;77;21122;-58
2022/10/27 11:32:17;;;;;;;6.78;3.30;;;;;;;18.87;58.52;101984.73;1846201;77;21396;-58
2022/10/27 11:34:54;;;;;;;3.95;3.00;;;;;;;18.75;58.73;101990.68;1846038;77;21047;-62
2022/10/27 11:37:41;;;;;;;6.62;2.60;;;;;;;18.59;59.04;101992.44;1826890;78;21055;-62
2022/10/27 11:40:13;;;;;;;5.33;3.25;;;;;;;18.33;59.34;101993.33;1844810;78;21075;-62
2022/10/27 11:42:47;;;;;;;7.25;3.17;;;;;;;18.07;59.96;102000.86;1846099;78;21580;-62
2022/10/27 11:45:24;;;;;;;8.50;3.30;;;;;;;17.93;60.50;101992.72;1844791;76;21129;-62
2022/10/27 11:48:11;;;;;;;5.42;3.17;;;;;;;17.85;60.76;101994.88;1846978;78;21045;-61